createdAt,value
2018-11-05T00:00:38.435Z,11.30
2018-11-05T00:03:09.278Z,11.30
2018-11-05T00:05:39.739Z,11.30
2018-11-05T00:08:10.348Z,11.30
2018-11-05T00:10:44.041Z,11.30
2018-11-05T00:13:14.574Z,11.30
2018-11-05T00:15:45.080Z,11.30
2018-11-05T00:18:15.543Z,11.30
2018-11-05T00:20:46.037Z,11.30
2018-11-05T00:23:16.612Z,11.30
2018-11-05T00:25:47.121Z,11.40
2018-11-05T00:28:17.551Z,11.40
2018-11-05T00:30:48.039Z,11.40
2018-11-05T00:33:18.470Z,11.40
2018-11-05T00:35:48.953Z,11.40
2018-11-05T00:38:19.388Z,11.40
2018-11-05T00:40:49.877Z,11.40
2018-11-05T00:43:20.296Z,11.40
2018-11-05T00:45:50.847Z,11.40
2018-11-05T00:48:21.279Z,11.40
2018-11-05T00:50:51.763Z,11.40
2018-11-05T00:53:22.197Z,11.40
2018-11-05T00:55:52.708Z,11.40
2018-11-05T00:58:23.192Z,11.40
2018-11-05T01:00:53.700Z,11.40
2018-11-05T01:03:24.143Z,11.40
2018-11-05T01:05:54.604Z,11.40
2018-11-05T01:08:25.142Z,11.40
2018-11-05T01:10:55.569Z,11.40
2018-11-05T01:13:26.026Z,11.40
2018-11-05T01:15:56.561Z,11.40
2018-11-05T01:18:27.015Z,11.40
2018-11-05T01:20:57.480Z,11.40
2018-11-05T01:23:27.942Z,11.40
2018-11-05T01:25:58.377Z,11.40
2018-11-05T01:28:28.803Z,11.40
2018-11-05T01:30:59.229Z,11.40
2018-11-05T01:33:29.756Z,11.40
2018-11-05T01:36:00.212Z,11.40
2018-11-05T01:38:30.701Z,11.40
2018-11-05T01:41:01.137Z,11.40
2018-11-05T01:43:31.593Z,11.40
2018-11-05T01:46:02.173Z,11.40
2018-11-05T01:48:32.565Z,11.40
2018-11-05T01:51:03.142Z,11.30
2018-11-05T01:53:33.584Z,11.30
2018-11-05T01:56:04.045Z,11.30
2018-11-05T01:58:34.470Z,11.40
2018-11-05T02:01:05.228Z,11.40
2018-11-05T02:03:35.750Z,11.40
2018-11-05T02:06:06.372Z,11.30
2018-11-05T02:08:36.825Z,11.30
2018-11-05T02:11:07.344Z,11.30
2018-11-05T02:13:37.782Z,11.30
2018-11-05T02:16:08.329Z,11.30
2018-11-05T02:18:38.810Z,11.30
2018-11-05T02:21:09.239Z,11.30
2018-11-05T02:23:39.655Z,11.20
2018-11-05T02:26:10.188Z,11.20
2018-11-05T02:28:40.631Z,11.20
2018-11-05T02:31:11.107Z,11.20
2018-11-05T02:33:41.569Z,11.20
2018-11-05T02:36:12.544Z,11.20
2018-11-05T02:38:42.989Z,11.10
2018-11-05T02:41:13.441Z,11.10
2018-11-05T02:43:43.880Z,11.10
2018-11-05T02:46:14.628Z,11.20
2018-11-05T02:48:45.110Z,11.10
2018-11-05T02:51:15.553Z,11.20
2018-11-05T02:53:46.003Z,11.20
2018-11-05T02:56:16.457Z,11.20
2018-11-05T02:58:47.023Z,11.10
2018-11-05T03:01:17.514Z,11.20
2018-11-05T03:03:47.995Z,11.10
2018-11-05T03:06:18.507Z,11.20
2018-11-05T03:08:48.938Z,11.20
2018-11-05T03:11:19.417Z,11.20
2018-11-05T03:16:20.396Z,11.20
2018-11-05T03:18:50.858Z,11.10
2018-11-05T03:21:21.317Z,11.10
2018-11-05T03:23:51.789Z,11.20
2018-11-05T03:26:22.289Z,11.20
2018-11-05T03:28:52.707Z,11.20
2018-11-05T03:31:23.207Z,11.20
2018-11-05T03:36:24.457Z,11.10
2018-11-05T03:38:54.926Z,11.10
2018-11-05T03:41:25.363Z,11.10
2018-11-05T03:43:55.864Z,11.10
2018-11-05T03:46:26.561Z,11.10
2018-11-05T03:48:57.033Z,11.10
2018-11-05T03:51:27.469Z,11.10
2018-11-05T03:53:59.633Z,11.10
2018-11-05T03:56:30.087Z,11.10
2018-11-05T03:59:00.678Z,11.10
2018-11-05T04:01:31.037Z,11.00
2018-11-05T04:04:01.533Z,11.00
2018-11-05T04:06:32.000Z,11.00
2018-11-05T04:09:02.565Z,11.00
2018-11-05T04:11:33.013Z,11.00
2018-11-05T04:14:03.502Z,10.90
2018-11-05T04:16:34.149Z,11.00
2018-11-05T04:19:04.907Z,11.00
2018-11-05T04:21:45.070Z,11.00
2018-11-05T04:24:16.307Z,10.90
2018-11-05T04:26:46.983Z,10.90
2018-11-05T04:29:17.536Z,10.90
2018-11-05T04:31:47.964Z,11.00
2018-11-05T04:34:18.451Z,10.90
2018-11-05T04:36:48.949Z,10.90
2018-11-05T04:39:19.432Z,11.00
2018-11-05T04:41:49.850Z,10.90
2018-11-05T04:44:20.299Z,10.80
2018-11-05T04:46:50.789Z,10.80
2018-11-05T04:49:21.257Z,10.80
2018-11-05T04:51:51.670Z,10.80
2018-11-05T04:54:22.153Z,10.70
2018-11-05T04:56:52.592Z,10.70
2018-11-05T04:59:23.042Z,10.60
2018-11-05T05:01:56.264Z,10.60
2018-11-05T05:04:26.734Z,10.60
2018-11-05T05:06:57.406Z,10.60
2018-11-05T05:09:27.885Z,10.60
2018-11-05T05:11:58.332Z,10.60
2018-11-05T05:14:28.801Z,10.60
2018-11-05T05:16:59.223Z,10.60
2018-11-05T05:19:29.712Z,10.60
2018-11-05T05:22:00.288Z,10.60
2018-11-05T05:24:30.780Z,10.60
2018-11-05T05:27:01.281Z,10.60
2018-11-05T05:29:31.869Z,10.60
2018-11-05T05:32:02.219Z,10.60
2018-11-05T05:34:32.714Z,10.60
2018-11-05T05:37:03.220Z,10.70
2018-11-05T05:39:33.692Z,10.60
2018-11-05T05:42:04.137Z,10.70
2018-11-05T05:44:34.622Z,10.70
2018-11-05T05:47:05.181Z,10.60
2018-11-05T05:49:35.987Z,10.70
2018-11-05T05:52:06.434Z,10.70
2018-11-05T05:54:36.902Z,10.70
2018-11-05T05:57:07.424Z,10.70
2018-11-05T05:59:37.859Z,10.70
2018-11-05T06:02:08.627Z,10.60
2018-11-05T06:04:39.108Z,10.60
2018-11-05T06:07:09.616Z,10.60
2018-11-05T06:09:40.036Z,10.60
2018-11-05T06:12:13.556Z,10.50
2018-11-05T06:14:44.648Z,10.40
2018-11-05T06:17:15.756Z,10.50
2018-11-05T06:19:46.719Z,10.50
2018-11-05T06:22:17.366Z,10.50
2018-11-05T06:24:47.898Z,10.50
2018-11-05T06:27:18.374Z,10.50
2018-11-05T06:29:49.017Z,10.40
2018-11-05T06:32:19.368Z,10.40
2018-11-05T06:34:49.823Z,10.40
2018-11-05T06:37:20.315Z,10.40
2018-11-05T06:39:50.783Z,10.30
2018-11-05T06:42:21.214Z,10.40
2018-11-05T06:44:51.727Z,10.40
2018-11-05T06:47:22.168Z,10.40
2018-11-05T06:49:52.677Z,10.50
2018-11-05T06:52:23.105Z,10.50
2018-11-05T06:54:53.619Z,10.50
2018-11-05T06:57:24.066Z,10.50
2018-11-05T06:59:54.512Z,10.50
2018-11-05T07:02:25.012Z,10.60
2018-11-05T07:04:55.440Z,10.60
2018-11-05T07:07:25.930Z,10.70
2018-11-05T07:09:56.440Z,10.80
2018-11-05T07:12:26.884Z,10.80
2018-11-05T07:14:57.334Z,10.90
2018-11-05T07:17:27.954Z,11.00
2018-11-05T07:19:58.387Z,10.90
2018-11-05T07:22:28.845Z,10.90
2018-11-05T07:24:59.294Z,10.90
2018-11-05T07:27:29.822Z,11.00
2018-11-05T07:30:00.250Z,11.00
2018-11-05T07:32:30.752Z,11.20
2018-11-05T07:35:01.329Z,11.30
2018-11-05T07:37:31.741Z,11.50
2018-11-05T07:40:02.196Z,11.50
2018-11-05T07:42:32.689Z,11.50
2018-11-05T07:45:03.197Z,11.50
2018-11-05T07:47:33.662Z,11.60
2018-11-05T07:50:04.172Z,11.70
2018-11-05T07:52:34.645Z,11.80
2018-11-05T07:55:05.120Z,12.00
2018-11-05T07:57:35.578Z,11.90
2018-11-05T08:00:26.513Z,12.20
2018-11-05T08:02:57.870Z,12.20
2018-11-05T08:05:28.259Z,12.30
2018-11-05T08:07:58.683Z,12.20
2018-11-05T08:10:29.204Z,12.40
2018-11-05T08:12:59.681Z,12.60
2018-11-05T08:15:30.167Z,12.30
2018-11-05T08:18:00.624Z,12.30
2018-11-05T08:20:31.058Z,12.60
2018-11-05T08:23:01.504Z,12.80
2018-11-05T08:25:32.043Z,12.80
2018-11-05T08:28:02.486Z,12.90
2018-11-05T08:30:32.954Z,13.20
2018-11-05T08:33:03.755Z,13.40
2018-11-05T08:35:34.117Z,13.90
2018-11-05T08:38:04.543Z,14.90
2018-11-05T08:40:35.001Z,15.40
2018-11-05T08:43:05.625Z,15.40
2018-11-05T08:45:36.106Z,14.90
2018-11-05T08:48:06.786Z,15.30
2018-11-05T08:50:37.406Z,15.80
2018-11-05T08:53:07.739Z,16.40
2018-11-05T08:55:38.236Z,16.70
2018-11-05T08:58:08.683Z,17.60
2018-11-05T09:00:48.322Z,18.80
2018-11-05T09:03:18.804Z,20.50
2018-11-05T09:05:49.268Z,21.00
2018-11-05T09:08:19.752Z,19.20
2018-11-05T09:10:50.542Z,20.00
2018-11-05T09:13:20.716Z,21.50
2018-11-05T09:15:52.125Z,22.20
2018-11-05T09:18:22.595Z,22.30
2018-11-05T09:20:53.090Z,22.40
2018-11-05T09:23:23.632Z,21.50
2018-11-05T09:25:54.168Z,22.50
2018-11-05T09:28:24.638Z,22.20
2018-11-05T09:30:55.125Z,20.50
2018-11-05T09:33:25.570Z,19.40
2018-11-05T09:35:56.080Z,20.90
2018-11-05T09:38:26.467Z,22.90
2018-11-05T09:40:56.994Z,24.00
2018-11-05T09:43:27.503Z,22.30
2018-11-05T09:45:57.992Z,22.80
2018-11-05T09:48:28.769Z,22.30
2018-11-05T09:50:59.275Z,23.40
2018-11-05T09:53:29.700Z,22.80
2018-11-05T09:56:00.184Z,22.60
2018-11-05T09:58:30.807Z,23.30
2018-11-05T10:01:01.257Z,23.80
2018-11-05T10:03:31.963Z,23.50
2018-11-05T10:06:02.306Z,23.70
2018-11-05T10:08:32.811Z,24.90
2018-11-05T10:11:03.326Z,25.20
2018-11-05T10:13:33.917Z,23.50
2018-11-05T10:16:04.536Z,23.50
2018-11-05T10:18:35.201Z,23.80
2018-11-05T10:21:05.754Z,23.80
2018-11-05T10:23:36.357Z,23.90
2018-11-05T10:26:07.049Z,22.90
2018-11-05T10:28:37.486Z,22.50
2018-11-05T10:31:07.951Z,22.80
2018-11-05T10:33:38.703Z,23.20
2018-11-05T10:36:09.081Z,22.90
2018-11-05T10:38:39.583Z,22.90
2018-11-05T10:41:10.007Z,21.90
2018-11-05T10:43:40.584Z,21.60
2018-11-05T10:46:11.118Z,22.40
2018-11-05T10:48:41.577Z,22.10
2018-11-05T10:51:12.123Z,21.90
2018-11-05T10:53:42.482Z,22.10
2018-11-05T10:56:12.938Z,21.90
2018-11-05T10:58:43.398Z,21.00
2018-11-05T11:01:15.253Z,21.40
2018-11-05T11:04:03.411Z,21.80
2018-11-05T11:06:33.595Z,21.50
2018-11-05T11:09:04.882Z,21.20
2018-11-05T11:11:35.349Z,21.80
2018-11-05T11:14:05.820Z,21.80
2018-11-05T11:16:36.315Z,21.60
2018-11-05T11:19:07.023Z,21.10
2018-11-05T11:21:37.510Z,21.30
2018-11-05T11:24:07.960Z,21.80
2018-11-05T11:26:38.644Z,22.10
2018-11-05T11:29:09.317Z,21.60
2018-11-05T11:31:40.244Z,21.30
2018-11-05T11:34:10.637Z,20.60
2018-11-05T11:36:41.164Z,20.50
2018-11-05T11:39:12.804Z,20.50
2018-11-05T11:41:43.288Z,20.20
2018-11-05T11:44:13.803Z,20.20
2018-11-05T11:46:44.179Z,20.10
2018-11-05T11:49:14.733Z,19.50
2018-11-05T11:51:45.178Z,19.50
2018-11-05T11:54:15.687Z,19.50
2018-11-05T11:56:46.266Z,19.60
2018-11-05T11:59:16.812Z,19.70
2018-11-05T12:02:04.318Z,19.10
2018-11-05T12:04:34.952Z,19.40
2018-11-05T12:07:05.504Z,19.60
2018-11-05T12:09:35.991Z,19.70
2018-11-05T12:12:07.166Z,19.70
2018-11-05T12:14:38.640Z,19.70
2018-11-05T12:17:08.963Z,19.80
2018-11-05T12:19:39.496Z,20.00
2018-11-05T12:22:09.922Z,20.10
2018-11-05T12:24:48.953Z,19.90
2018-11-05T12:27:19.474Z,19.60
2018-11-05T12:29:49.912Z,19.70
2018-11-05T12:32:20.416Z,19.90
2018-11-05T12:34:50.884Z,20.10
2018-11-05T12:37:21.363Z,19.60
2018-11-05T12:39:51.810Z,19.70
2018-11-05T12:42:22.306Z,19.10
2018-11-05T12:44:52.752Z,18.70
2018-11-05T12:47:23.197Z,18.20
2018-11-05T12:49:53.754Z,17.90
2018-11-05T12:52:24.218Z,17.70
2018-11-05T12:54:54.783Z,17.50
2018-11-05T12:57:25.246Z,17.50
2018-11-05T12:59:55.745Z,17.30
2018-11-05T13:02:27.271Z,17.00
2018-11-05T13:04:57.744Z,16.60
2018-11-05T13:07:28.193Z,16.70
2018-11-05T13:09:58.650Z,16.70
2018-11-05T13:12:29.101Z,16.60
2018-11-05T13:14:59.650Z,16.60
2018-11-05T13:17:30.115Z,17.00
2018-11-05T13:20:00.596Z,17.10
2018-11-05T13:22:31.090Z,17.30
2018-11-05T13:25:01.661Z,17.30
2018-11-05T13:27:32.044Z,17.40
2018-11-05T13:30:02.578Z,17.50
2018-11-05T13:32:33.077Z,17.30
2018-11-05T13:35:03.907Z,17.40
2018-11-05T13:37:34.971Z,17.40
2018-11-05T13:40:05.268Z,17.30
2018-11-05T13:42:35.771Z,17.30
2018-11-05T13:45:07.105Z,17.20
2018-11-05T13:47:38.203Z,17.00
2018-11-05T13:50:09.030Z,16.90
2018-11-05T13:52:39.708Z,16.90
2018-11-05T13:55:12.525Z,16.90
2018-11-05T13:57:44.272Z,16.80
2018-11-05T14:00:16.147Z,16.80
2018-11-05T14:02:46.689Z,16.70
2018-11-05T14:05:17.212Z,16.60
2018-11-05T14:07:47.733Z,16.50
2018-11-05T14:10:19.741Z,16.50
2018-11-05T14:12:50.617Z,16.30
2018-11-05T14:15:21.517Z,16.20
2018-11-05T14:17:51.979Z,16.10
2018-11-05T14:20:22.516Z,16.00
2018-11-05T14:22:52.980Z,16.00
2018-11-05T14:25:23.488Z,15.90
2018-11-05T14:27:54.052Z,15.80
2018-11-05T14:30:24.399Z,15.80
2018-11-05T14:32:54.915Z,15.70
2018-11-05T14:35:25.397Z,15.60
2018-11-05T14:37:55.870Z,15.60
2018-11-05T14:40:26.308Z,15.50
2018-11-05T14:42:56.825Z,15.40
2018-11-05T14:45:27.222Z,15.30
2018-11-05T14:47:57.687Z,15.20
2018-11-05T14:50:28.197Z,15.10
2018-11-05T14:52:58.651Z,15.10
2018-11-05T14:55:29.144Z,15.00
2018-11-05T14:57:59.644Z,14.90
2018-11-05T15:00:30.111Z,14.80
2018-11-05T15:03:00.715Z,14.80
2018-11-05T15:05:31.199Z,14.70
2018-11-05T15:08:01.728Z,14.60
2018-11-05T15:10:32.161Z,14.60
2018-11-05T15:13:02.721Z,14.50
2018-11-05T15:15:33.176Z,14.50
2018-11-05T15:18:03.695Z,14.40
2018-11-05T15:20:34.223Z,14.40
2018-11-05T15:23:04.598Z,14.20
2018-11-05T15:25:35.145Z,14.10
2018-11-05T15:28:05.773Z,14.10
2018-11-05T15:30:36.274Z,14.00
2018-11-05T15:33:06.791Z,13.90
2018-11-05T15:35:37.317Z,13.70
2018-11-05T15:38:08.027Z,13.60
2018-11-05T15:40:38.442Z,13.60
2018-11-05T15:43:08.887Z,13.60
2018-11-05T15:45:39.422Z,13.40
2018-11-05T15:48:09.887Z,13.40
2018-11-05T15:50:41.369Z,13.20
2018-11-05T15:53:12.095Z,13.20
2018-11-05T15:55:42.284Z,13.30
2018-11-05T15:58:12.753Z,13.50
2018-11-05T16:00:43.243Z,13.70
2018-11-05T16:03:14.189Z,13.80
2018-11-05T16:05:44.619Z,13.80
2018-11-05T16:08:15.048Z,13.70
2018-11-05T16:10:45.504Z,13.70
2018-11-05T16:13:15.974Z,13.70
2018-11-05T16:15:46.482Z,13.60
2018-11-05T16:18:17.011Z,13.40
2018-11-05T16:20:47.343Z,13.50
2018-11-05T16:23:17.796Z,13.50
2018-11-05T16:25:48.306Z,13.40
2018-11-05T16:28:18.773Z,13.40
2018-11-05T16:30:49.209Z,13.20
2018-11-05T16:33:19.689Z,13.10
2018-11-05T16:35:50.144Z,13.10
2018-11-05T16:38:20.724Z,12.90
2018-11-05T16:40:51.160Z,12.80
2018-11-05T16:43:21.620Z,12.70
2018-11-05T16:45:52.153Z,12.60
2018-11-05T16:48:22.585Z,12.60
2018-11-05T16:50:53.048Z,12.50
2018-11-05T16:53:23.652Z,12.50
2018-11-05T16:55:54.125Z,12.50
2018-11-05T16:58:24.691Z,12.50
2018-11-05T17:00:55.281Z,12.50
2018-11-05T17:03:25.769Z,12.30
2018-11-05T17:05:56.184Z,12.30
2018-11-05T17:08:26.658Z,12.10
2018-11-05T17:10:57.186Z,12.00
2018-11-05T17:13:27.753Z,11.90
2018-11-05T17:15:58.331Z,11.80
2018-11-05T17:18:28.939Z,11.70
2018-11-05T17:20:59.483Z,11.70
2018-11-05T17:23:29.998Z,11.70
2018-11-05T17:26:00.520Z,11.60
2018-11-05T17:28:31.074Z,11.60
2018-11-05T17:31:01.510Z,11.60
2018-11-05T17:33:32.010Z,11.60
2018-11-05T17:36:02.586Z,11.50
2018-11-05T17:38:33.095Z,11.50
2018-11-05T17:41:03.601Z,11.40
2018-11-05T17:43:34.183Z,11.40
2018-11-05T17:46:04.975Z,11.50
2018-11-05T17:48:35.414Z,11.40
2018-11-05T17:51:06.221Z,11.40
2018-11-05T17:53:36.838Z,11.30
2018-11-05T17:56:07.385Z,11.30
2018-11-05T17:58:37.883Z,11.30
2018-11-05T18:01:08.339Z,11.20
2018-11-05T18:03:38.834Z,11.20
2018-11-05T18:06:09.264Z,11.30
2018-11-05T18:08:39.741Z,11.30
2018-11-05T18:11:10.207Z,11.20
2018-11-05T18:13:40.687Z,11.20
2018-11-05T18:16:11.176Z,11.40
2018-11-05T18:18:41.827Z,11.40
2018-11-05T18:21:12.261Z,11.50
2018-11-05T18:23:42.844Z,11.70
2018-11-05T18:26:13.658Z,11.70
2018-11-05T18:28:44.186Z,11.80
2018-11-05T18:31:14.820Z,11.70
2018-11-05T18:33:45.186Z,11.80
2018-11-05T18:36:15.652Z,11.80
2018-11-05T18:38:46.228Z,11.70
2018-11-05T18:41:16.684Z,11.70
2018-11-05T18:43:47.102Z,11.60
2018-11-05T18:46:17.585Z,11.70
2018-11-05T18:48:48.111Z,11.70
2018-11-05T18:51:18.606Z,11.70
2018-11-05T18:53:49.061Z,11.70
2018-11-05T18:56:19.557Z,11.70
2018-11-05T18:58:49.990Z,11.70
2018-11-05T19:01:20.475Z,11.70
2018-11-05T19:03:51.148Z,11.80
2018-11-05T19:06:21.511Z,11.90
2018-11-05T19:08:52.035Z,11.80
2018-11-05T19:11:22.518Z,11.90
2018-11-05T19:13:53.000Z,12.00
2018-11-05T19:16:23.514Z,12.00
2018-11-05T19:18:54.061Z,12.00
2018-11-05T19:21:24.607Z,12.00
2018-11-05T19:23:55.274Z,12.00
2018-11-05T19:26:25.591Z,11.90
2018-11-05T19:28:56.093Z,11.90
2018-11-05T19:31:26.609Z,11.80
2018-11-05T19:33:57.177Z,11.80
2018-11-05T19:36:27.524Z,11.80
2018-11-05T19:38:58.074Z,11.80
2018-11-05T19:41:28.601Z,11.70
2018-11-05T19:43:59.077Z,11.70
2018-11-05T19:46:29.544Z,11.60
2018-11-05T19:49:00.004Z,11.60
2018-11-05T19:51:30.668Z,11.70
2018-11-05T19:54:01.174Z,11.60
2018-11-05T19:56:31.760Z,11.60
2018-11-05T19:59:02.181Z,11.60
2018-11-05T20:01:32.720Z,11.50
2018-11-05T20:04:03.348Z,11.50
2018-11-05T20:06:34.057Z,11.60
2018-11-05T20:09:05.654Z,11.60
2018-11-05T20:11:36.427Z,11.70
2018-11-05T20:14:07.091Z,11.70
2018-11-05T20:16:37.706Z,11.50
2018-11-05T20:19:08.390Z,11.50
2018-11-05T20:21:39.017Z,11.60
2018-11-05T20:24:09.618Z,11.60
2018-11-05T20:26:40.603Z,11.50
2018-11-05T20:29:11.351Z,11.30
2018-11-05T20:31:42.265Z,11.30
2018-11-05T20:34:13.124Z,11.40
2018-11-05T20:36:44.035Z,11.50
2018-11-05T20:39:14.633Z,11.40
2018-11-05T20:41:45.441Z,11.30
2018-11-05T20:44:16.139Z,11.10
2018-11-05T20:46:47.012Z,11.20
2018-11-05T20:49:18.549Z,11.10
2018-11-05T20:51:49.905Z,11.00
2018-11-05T20:54:20.443Z,11.10
2018-11-05T20:56:51.145Z,11.10
2018-11-05T20:59:21.850Z,11.00
2018-11-05T21:01:52.410Z,11.00
2018-11-05T21:04:23.022Z,10.90
2018-11-05T21:06:53.794Z,10.80
2018-11-05T21:09:27.186Z,10.70
2018-11-05T21:11:57.730Z,10.50
2018-11-05T21:14:28.364Z,10.40
2018-11-05T21:16:58.793Z,10.30
2018-11-05T21:19:29.402Z,10.40
2018-11-05T21:21:59.878Z,10.40
2018-11-05T21:24:30.290Z,10.30
2018-11-05T21:27:00.858Z,10.30
2018-11-05T21:29:31.240Z,10.80
2018-11-05T21:32:01.679Z,10.70
2018-11-05T21:34:32.143Z,10.70
2018-11-05T21:37:02.623Z,10.70
2018-11-05T21:39:33.923Z,10.60
2018-11-05T21:42:04.775Z,10.70
2018-11-05T21:44:35.240Z,10.70
2018-11-05T21:47:05.762Z,10.70
2018-11-05T21:49:36.341Z,10.80
2018-11-05T21:52:07.274Z,10.70
2018-11-05T21:54:37.933Z,10.70
2018-11-05T21:57:08.432Z,10.60
2018-11-05T21:59:38.952Z,10.80
2018-11-05T22:02:09.509Z,10.80
2018-11-05T22:04:39.994Z,10.70
2018-11-05T22:07:10.447Z,10.60
2018-11-05T22:09:40.964Z,10.60
2018-11-05T22:12:11.431Z,10.60
2018-11-05T22:14:41.924Z,10.60
2018-11-05T22:17:12.416Z,10.60
2018-11-05T22:19:42.908Z,10.50
2018-11-05T22:22:13.366Z,10.40
2018-11-05T22:24:43.877Z,10.30
2018-11-05T22:27:14.386Z,10.30
2018-11-05T22:29:44.800Z,10.20
2018-11-05T22:32:15.235Z,10.10
2018-11-05T22:34:45.703Z,9.90
2018-11-05T22:37:16.556Z,9.70
2018-11-05T22:39:46.792Z,9.60
2018-11-05T22:42:17.222Z,9.50
2018-11-05T22:44:47.709Z,9.50
2018-11-05T22:47:18.245Z,9.40
2018-11-05T22:49:48.689Z,9.40
2018-11-05T22:52:19.162Z,9.40
2018-11-05T22:54:49.657Z,9.40
2018-11-05T22:57:20.111Z,9.40
2018-11-05T22:59:50.525Z,9.30
2018-11-05T23:02:21.026Z,9.30
2018-11-05T23:04:51.524Z,9.30
2018-11-05T23:07:21.971Z,9.20
2018-11-05T23:09:52.527Z,9.20
2018-11-05T23:12:22.910Z,9.30
2018-11-05T23:14:53.453Z,9.20
2018-11-05T23:17:23.936Z,9.20
2018-11-05T23:19:54.448Z,9.20
2018-11-05T23:22:25.111Z,9.20
2018-11-05T23:24:55.568Z,9.10
2018-11-05T23:27:28.082Z,9.10
2018-11-05T23:29:58.596Z,9.10
2018-11-05T23:32:29.046Z,9.10
2018-11-05T23:34:59.547Z,9.10
2018-11-05T23:37:29.986Z,9.20
2018-11-05T23:40:00.481Z,9.30
2018-11-05T23:42:30.942Z,9.20
2018-11-05T23:45:01.447Z,9.10
2018-11-05T23:47:31.889Z,9.10
2018-11-05T23:50:02.412Z,9.10
2018-11-05T23:52:32.880Z,9.00
2018-11-05T23:55:03.345Z,9.00
2018-11-05T23:57:33.836Z,9.00
